createdAt,value
2022-10-11T00:00:40.466Z,59.53
2022-10-11T00:03:11.165Z,59.53
2022-10-11T00:05:41.586Z,59.52
2022-10-11T00:08:11.259Z,59.57
2022-10-11T00:10:44.143Z,59.57
2022-10-11T00:13:13.253Z,59.59
2022-10-11T00:15:43.510Z,59.53
2022-10-11T00:18:13.101Z,59.58
2022-10-11T00:20:43.522Z,59.61
2022-10-11T00:23:14.790Z,59.65
2022-10-11T00:25:44.326Z,59.65
2022-10-11T00:28:13.607Z,59.65
2022-10-11T00:30:44.672Z,59.66
2022-10-11T00:33:15.639Z,59.63
2022-10-11T00:35:44.701Z,59.69
2022-10-11T00:38:15.011Z,59.75
2022-10-11T00:40:45.036Z,59.80
2022-10-11T00:43:26.056Z,59.78
2022-10-11T00:45:58.591Z,59.82
2022-10-11T00:48:50.774Z,59.82
2022-10-11T00:51:25.496Z,59.95
2022-10-11T00:53:56.024Z,59.80
2022-10-11T00:56:32.049Z,59.88
2022-10-11T00:59:06.366Z,59.79
2022-10-11T01:01:37.226Z,59.63
2022-10-11T01:04:10.840Z,59.67
2022-10-11T01:06:40.266Z,59.57
2022-10-11T01:09:10.248Z,59.53
2022-10-11T01:11:42.751Z,59.50
2022-10-11T01:14:37.692Z,59.46
2022-10-11T01:17:26.339Z,59.46
2022-10-11T01:20:29.018Z,59.44
2022-10-11T01:23:13.828Z,59.40
2022-10-11T01:26:04.363Z,59.41
2022-10-11T01:29:01.435Z,59.40
2022-10-11T01:32:05.160Z,59.36
2022-10-11T01:34:53.302Z,59.45
2022-10-11T01:37:35.938Z,59.47
2022-10-11T01:40:12.451Z,59.45
2022-10-11T01:42:44.085Z,59.44
2022-10-11T01:45:18.335Z,59.43
2022-10-11T01:47:48.316Z,59.45
2022-10-11T01:50:40.995Z,59.44
2022-10-11T01:53:50.373Z,59.48
2022-10-11T01:56:44.123Z,59.49
2022-10-11T02:02:39.712Z,59.51
2022-10-11T02:05:41.178Z,59.49
2022-10-11T02:08:34.835Z,59.52
2022-10-11T02:11:08.361Z,59.56
2022-10-11T02:13:46.659Z,59.46
2022-10-11T02:16:23.762Z,59.53
2022-10-11T02:18:56.469Z,59.48
2022-10-11T02:21:27.128Z,59.51
2022-10-11T02:24:09.505Z,59.52
2022-10-11T02:26:45.006Z,59.52
2022-10-11T02:29:18.858Z,59.58
2022-10-11T02:31:52.575Z,59.60
2022-10-11T02:34:26.168Z,59.50
2022-10-11T02:37:07.448Z,59.50
2022-10-11T02:39:49.041Z,59.52
2022-10-11T02:42:34.136Z,59.52
2022-10-11T02:45:12.223Z,59.48
2022-10-11T02:47:46.980Z,59.54
2022-10-11T02:50:18.208Z,59.51
2022-10-11T02:52:47.887Z,59.51
2022-10-11T02:55:17.174Z,59.57
2022-10-11T02:57:47.506Z,59.55
2022-10-11T03:00:16.841Z,59.54
2022-10-11T03:02:46.545Z,59.47
2022-10-11T03:05:16.781Z,59.41
2022-10-11T03:07:46.565Z,59.29
2022-10-11T03:10:16.380Z,59.30
2022-10-11T03:12:45.783Z,59.25
2022-10-11T03:15:15.260Z,59.20
2022-10-11T03:17:45.481Z,59.19
2022-10-11T03:20:17.666Z,59.11
2022-10-11T03:22:46.809Z,59.29
2022-10-11T03:25:18.263Z,59.19
2022-10-11T03:27:47.461Z,59.21
2022-10-11T03:30:18.488Z,59.14
2022-10-11T03:32:48.413Z,59.22
2022-10-11T03:35:18.254Z,59.20
2022-10-11T03:37:54.414Z,59.36
2022-10-11T03:40:23.863Z,59.28
2022-10-11T03:42:53.581Z,59.22
2022-10-11T03:45:23.524Z,59.35
2022-10-11T03:47:52.631Z,59.29
2022-10-11T03:50:21.689Z,59.33
2022-10-11T03:52:54.191Z,59.34
2022-10-11T03:55:24.263Z,59.28
2022-10-11T03:57:53.792Z,59.30
2022-10-11T04:00:25.514Z,59.26
2022-10-11T04:02:55.087Z,59.31
2022-10-11T04:05:25.385Z,59.32
2022-10-11T04:07:55.167Z,59.36
2022-10-11T04:10:24.971Z,59.35
2022-10-11T04:12:55.169Z,59.36
2022-10-11T04:15:27.792Z,59.37
2022-10-11T04:17:57.273Z,59.39
2022-10-11T04:20:35.651Z,59.44
2022-10-11T04:23:04.866Z,59.49
2022-10-11T04:25:35.113Z,59.39
2022-10-11T04:28:04.455Z,59.38
2022-10-11T04:30:34.010Z,59.36
2022-10-11T04:33:02.970Z,59.37
2022-10-11T04:35:33.793Z,59.40
2022-10-11T04:38:05.943Z,59.41
2022-10-11T04:40:35.762Z,59.46
2022-10-11T04:43:05.489Z,59.48
2022-10-11T04:45:35.218Z,59.39
2022-10-11T04:48:04.815Z,59.43
2022-10-11T04:50:34.279Z,59.46
2022-10-11T04:53:03.186Z,59.50
2022-10-11T04:55:33.646Z,59.40
2022-10-11T04:58:03.351Z,59.41
2022-10-11T05:00:32.679Z,59.45
2022-10-11T05:03:01.829Z,59.47
2022-10-11T05:05:31.251Z,59.43
2022-10-11T05:08:00.442Z,59.47
2022-10-11T05:10:29.429Z,59.46
2022-10-11T05:12:58.667Z,59.45
2022-10-11T05:15:30.467Z,59.44
2022-10-11T05:18:01.045Z,59.40
2022-10-11T05:20:31.714Z,59.34
2022-10-11T05:23:00.840Z,59.35
2022-10-11T05:25:33.709Z,59.34
2022-10-11T05:28:03.030Z,59.36
2022-10-11T05:30:32.571Z,59.46
2022-10-11T05:33:02.561Z,59.47
2022-10-11T05:35:31.678Z,59.50
2022-10-11T05:37:59.056Z,59.53
2022-10-11T05:40:27.119Z,59.50
2022-10-11T05:42:54.119Z,59.49
2022-10-11T05:45:24.213Z,59.47
2022-10-11T05:47:51.378Z,59.55
2022-10-11T05:50:22.034Z,59.53
2022-10-11T05:52:51.621Z,59.58
2022-10-11T05:55:22.762Z,59.59
2022-10-11T05:57:53.623Z,59.63
2022-10-11T06:00:30.496Z,59.62
2022-10-11T06:03:03.263Z,59.61
2022-10-11T06:05:30.414Z,59.63
2022-10-11T06:07:59.114Z,59.57
2022-10-11T06:10:26.858Z,59.60
2022-10-11T06:12:54.012Z,59.54
2022-10-11T06:15:25.435Z,59.66
2022-10-11T06:17:54.052Z,59.64
2022-10-11T06:20:21.098Z,59.61
2022-10-11T06:22:48.578Z,59.66
2022-10-11T06:25:17.023Z,59.68
2022-10-11T06:27:43.976Z,59.63
2022-10-11T06:30:13.699Z,59.58
2022-10-11T06:32:40.741Z,59.65
2022-10-11T06:35:09.327Z,59.68
2022-10-11T06:37:38.322Z,59.65
2022-10-11T06:40:07.408Z,59.62
2022-10-11T06:42:34.830Z,59.72
2022-10-11T06:45:01.806Z,59.63
2022-10-11T06:47:28.863Z,59.68
2022-10-11T06:49:57.341Z,59.61
2022-10-11T06:52:24.488Z,59.64
2022-10-11T06:54:51.540Z,59.64
2022-10-11T06:57:19.530Z,59.60
2022-10-11T06:59:47.667Z,59.49
2022-10-11T07:02:14.679Z,59.50
2022-10-11T07:04:41.650Z,59.41
2022-10-11T07:07:08.864Z,59.45
2022-10-11T07:09:36.078Z,59.45
2022-10-11T07:12:05.182Z,59.46
2022-10-11T07:14:32.727Z,59.64
2022-10-11T07:17:04.023Z,59.86
2022-10-11T07:19:33.522Z,60.13
2022-10-11T07:22:06.779Z,60.12
2022-10-11T07:24:33.821Z,60.40
2022-10-11T07:27:03.444Z,60.54
2022-10-11T07:29:30.653Z,60.61
2022-10-11T07:32:00.804Z,60.54
2022-10-11T07:34:27.686Z,60.58
2022-10-11T07:36:54.695Z,60.70
2022-10-11T07:39:26.970Z,60.77
2022-10-11T07:41:54.019Z,60.86
2022-10-11T07:44:21.172Z,60.88
2022-10-11T07:46:48.854Z,60.72
2022-10-11T07:49:15.778Z,60.62
2022-10-11T07:51:42.897Z,60.54
2022-10-11T07:54:10.578Z,60.46
2022-10-11T07:59:22.857Z,60.41
2022-10-11T08:01:50.005Z,60.30
2022-10-11T08:04:17.856Z,60.29
2022-10-11T08:06:45.745Z,60.38
2022-10-11T08:09:15.345Z,60.28
2022-10-11T08:11:43.467Z,60.39
2022-10-11T08:14:15.239Z,60.34
2022-10-11T08:16:42.291Z,60.31
2022-10-11T08:19:11.159Z,60.33
2022-10-11T08:21:38.186Z,60.36
2022-10-11T08:24:06.932Z,60.31
2022-10-11T08:26:35.691Z,60.51
2022-10-11T08:29:04.315Z,60.59
2022-10-11T08:31:34.698Z,60.55
2022-10-11T08:34:04.615Z,60.86
2022-10-11T08:36:32.269Z,61.06
2022-10-11T08:38:59.632Z,61.19
2022-10-11T08:41:32.414Z,61.14
2022-10-11T08:44:05.612Z,61.07
2022-10-11T08:46:35.626Z,61.14
2022-10-11T08:49:05.642Z,61.14
2022-10-11T08:51:52.865Z,61.11
2022-10-11T08:54:34.854Z,61.07
2022-10-11T08:57:05.946Z,61.00
2022-10-11T08:59:58.154Z,61.06
2022-10-11T09:03:07.018Z,61.32
2022-10-11T09:05:58.072Z,61.30
2022-10-11T09:09:03.904Z,61.40
2022-10-11T09:11:52.489Z,61.38
2022-10-11T09:14:55.083Z,61.56
2022-10-11T09:17:52.852Z,61.74
2022-10-11T09:20:41.997Z,61.75
2022-10-11T09:23:27.808Z,61.65
2022-10-11T09:26:27.088Z,61.55
2022-10-11T09:29:15.538Z,61.60
2022-10-11T09:31:49.584Z,61.53
2022-10-11T09:34:19.051Z,61.57
2022-10-11T09:37:35.517Z,61.60
2022-10-11T09:40:31.695Z,61.55
2022-10-11T09:43:01.160Z,61.55
2022-10-11T09:45:28.549Z,61.56
2022-10-11T09:47:59.313Z,61.57
2022-10-11T09:50:29.811Z,61.59
2022-10-11T09:53:02.885Z,61.78
2022-10-11T09:55:49.952Z,62.00
2022-10-11T09:58:26.907Z,62.00
2022-10-11T10:01:05.100Z,61.94
2022-10-11T10:03:47.625Z,61.68
2022-10-11T10:06:27.438Z,61.58
2022-10-11T10:08:55.638Z,61.59
2022-10-11T10:11:27.485Z,61.65
2022-10-11T10:13:59.594Z,61.51
2022-10-11T10:16:35.604Z,61.50
2022-10-11T10:19:09.330Z,61.56
2022-10-11T10:21:39.144Z,61.64
2022-10-11T10:24:09.781Z,61.63
2022-10-11T10:26:38.262Z,61.86
2022-10-11T10:29:18.748Z,61.92
2022-10-11T10:32:12.931Z,61.92
2022-10-11T10:35:09.548Z,62.11
2022-10-11T10:37:43.968Z,62.36
2022-10-11T10:40:23.502Z,62.31
2022-10-11T10:42:51.273Z,62.32
2022-10-11T10:45:24.370Z,62.43
2022-10-11T10:48:03.390Z,62.38
2022-10-11T10:50:42.297Z,62.32
2022-10-11T10:53:23.125Z,62.30
2022-10-11T10:56:05.762Z,62.30
2022-10-11T10:59:00.696Z,62.28
2022-10-11T11:01:32.417Z,62.25
2022-10-11T11:04:30.325Z,62.18
2022-10-11T11:07:54.900Z,62.24
2022-10-11T11:10:25.718Z,62.16
2022-10-11T11:13:28.772Z,62.12
2022-10-11T11:16:19.555Z,62.11
2022-10-11T11:18:58.887Z,61.90
2022-10-11T11:21:41.892Z,61.86
2022-10-11T11:24:30.388Z,61.84
2022-10-11T11:27:06.117Z,61.95
2022-10-11T11:29:41.460Z,61.81
2022-10-11T11:32:35.030Z,61.87
2022-10-11T11:35:06.448Z,62.03
2022-10-11T11:37:40.799Z,62.26
2022-10-11T11:40:16.960Z,62.43
2022-10-11T11:43:15.833Z,62.91
2022-10-11T11:45:48.947Z,63.19
2022-10-11T11:48:20.903Z,63.49
2022-10-11T11:51:09.965Z,63.68
2022-10-11T11:54:06.542Z,63.46
2022-10-11T11:56:58.023Z,63.20
2022-10-11T11:59:38.077Z,63.08
2022-10-11T12:02:42.015Z,62.93
2022-10-11T12:05:12.936Z,62.86
2022-10-11T12:07:57.284Z,62.74
2022-10-11T12:10:27.990Z,62.60
2022-10-11T12:13:20.738Z,62.55
2022-10-11T12:16:06.489Z,62.38
2022-10-11T12:18:41.918Z,62.30
2022-10-11T12:21:37.418Z,62.17
2022-10-11T12:24:12.193Z,61.86
2022-10-11T12:26:44.660Z,61.67
2022-10-11T12:29:18.524Z,61.53
2022-10-11T12:31:49.628Z,61.31
2022-10-11T12:37:22.673Z,60.96
2022-10-11T12:39:57.845Z,60.64
2022-10-11T12:42:30.098Z,60.61
2022-10-11T12:45:13.251Z,60.52
2022-10-11T12:48:28.690Z,60.52
2022-10-11T12:51:23.168Z,60.59
2022-10-11T12:54:24.926Z,60.62
2022-10-11T12:57:00.940Z,60.69
2022-10-11T12:59:31.635Z,60.57
2022-10-11T13:02:00.556Z,60.63
2022-10-11T13:04:33.062Z,60.65
2022-10-11T13:07:12.969Z,60.73
2022-10-11T13:09:48.840Z,60.71
2022-10-11T13:12:20.166Z,60.80
2022-10-11T13:15:12.396Z,60.82
2022-10-11T13:17:42.225Z,60.98
2022-10-11T13:20:24.617Z,60.99
2022-10-11T13:22:57.002Z,61.02
2022-10-11T13:25:27.731Z,61.07
2022-10-11T13:27:58.453Z,60.96
2022-10-11T13:30:31.851Z,61.09
2022-10-11T13:33:01.248Z,61.07
2022-10-11T13:35:36.511Z,61.12
2022-10-11T13:38:07.633Z,61.06
2022-10-11T13:40:36.691Z,61.13
2022-10-11T13:43:06.084Z,61.08
2022-10-11T13:45:36.150Z,61.17
2022-10-11T13:48:03.520Z,61.03
2022-10-11T13:50:35.027Z,61.25
2022-10-11T13:53:22.831Z,61.20
2022-10-11T13:56:06.644Z,61.20
2022-10-11T13:58:47.715Z,61.37
2022-10-11T14:01:20.832Z,61.38
2022-10-11T14:04:04.204Z,61.34
2022-10-11T14:06:46.135Z,61.25
2022-10-11T14:09:23.624Z,61.33
2022-10-11T14:11:52.826Z,61.23
2022-10-11T14:14:35.948Z,61.11
2022-10-11T14:17:22.961Z,61.26
2022-10-11T14:20:15.929Z,61.08
2022-10-11T14:22:43.530Z,61.12
2022-10-11T14:25:12.687Z,61.11
2022-10-11T14:27:39.928Z,61.09
2022-10-11T14:30:31.209Z,61.08
2022-10-11T14:33:01.276Z,61.04
2022-10-11T14:35:31.175Z,61.00
2022-10-11T14:37:58.523Z,61.05
2022-10-11T14:40:29.368Z,60.99
2022-10-11T14:42:57.129Z,61.02
2022-10-11T14:45:24.893Z,61.10
2022-10-11T14:47:52.144Z,61.14
2022-10-11T14:50:45.403Z,61.13
2022-10-11T14:53:14.847Z,61.19
2022-10-11T14:55:43.353Z,61.23
2022-10-11T14:58:13.936Z,61.28
2022-10-11T15:00:40.919Z,61.26
2022-10-11T15:03:08.839Z,61.22
2022-10-11T15:05:37.528Z,61.10
2022-10-11T15:08:06.772Z,61.16
2022-10-11T15:10:38.139Z,61.13
2022-10-11T15:13:07.408Z,61.04
2022-10-11T15:15:37.192Z,61.10
2022-10-11T15:18:06.722Z,61.06
2022-10-11T15:20:38.035Z,61.08
2022-10-11T15:23:06.540Z,61.21
2022-10-11T15:25:34.899Z,61.30
2022-10-11T15:28:03.589Z,61.42
2022-10-11T15:30:40.936Z,61.42
2022-10-11T15:33:09.726Z,61.71
2022-10-11T15:35:39.063Z,62.31
2022-10-11T15:38:25.248Z,63.48
2022-10-11T15:40:53.438Z,64.13
2022-10-11T15:43:25.122Z,64.87
2022-10-11T15:45:55.107Z,65.30
2022-10-11T15:48:29.891Z,65.90
2022-10-11T15:50:57.707Z,66.31
2022-10-11T15:53:28.736Z,66.65
2022-10-11T15:56:01.625Z,67.24
2022-10-11T15:58:32.416Z,66.76
2022-10-11T16:01:05.734Z,66.26
2022-10-11T16:03:36.372Z,65.82
2022-10-11T16:06:05.701Z,65.42
2022-10-11T16:08:34.184Z,65.28
2022-10-11T16:11:01.933Z,65.02
2022-10-11T16:13:29.884Z,64.89
2022-10-11T16:16:00.668Z,64.89
2022-10-11T16:18:35.733Z,64.78
2022-10-11T16:21:13.434Z,64.53
2022-10-11T16:23:48.461Z,64.42
2022-10-11T16:26:17.299Z,64.29
2022-10-11T16:28:45.406Z,64.16
2022-10-11T16:31:18.470Z,63.97
2022-10-11T16:33:48.120Z,63.68
2022-10-11T16:36:36.956Z,63.80
2022-10-11T16:39:14.637Z,63.74
2022-10-11T16:41:45.554Z,63.51
2022-10-11T16:44:19.592Z,63.58
2022-10-11T16:46:48.782Z,63.40
2022-10-11T16:49:22.884Z,63.47
2022-10-11T16:51:51.387Z,63.31
2022-10-11T16:54:21.178Z,63.26
2022-10-11T16:56:50.587Z,63.15
2022-10-11T16:59:26.154Z,63.24
2022-10-11T17:01:55.796Z,63.33
2022-10-11T17:04:22.983Z,63.25
2022-10-11T17:06:51.601Z,63.32
2022-10-11T17:09:20.176Z,63.23
2022-10-11T17:11:49.656Z,63.10
2022-10-11T17:14:20.499Z,63.15
2022-10-11T17:16:47.749Z,63.23
2022-10-11T17:19:18.814Z,63.25
2022-10-11T17:21:45.942Z,63.20
2022-10-11T17:24:13.495Z,63.06
2022-10-11T17:29:50.860Z,63.02
2022-10-11T17:32:28.620Z,63.07
2022-10-11T17:34:58.819Z,63.03
2022-10-11T17:37:29.030Z,62.89
2022-10-11T17:39:56.110Z,63.02
2022-10-11T17:42:23.185Z,63.08
2022-10-11T17:44:50.470Z,63.09
2022-10-11T17:47:20.493Z,62.81
2022-10-11T17:50:02.348Z,63.08
2022-10-11T17:52:35.281Z,62.92
2022-10-11T17:55:02.371Z,62.93
2022-10-11T17:57:30.440Z,62.90
2022-10-11T17:59:59.629Z,62.74
2022-10-11T18:02:36.714Z,62.76
2022-10-11T18:05:06.363Z,62.75
2022-10-11T18:07:34.651Z,62.75
2022-10-11T18:10:17.021Z,62.69
2022-10-11T18:12:50.765Z,62.62
2022-10-11T18:15:24.086Z,62.66
2022-10-11T18:18:04.079Z,62.63
2022-10-11T18:20:57.546Z,62.62
2022-10-11T18:23:28.501Z,62.59
2022-10-11T18:26:09.738Z,62.44
2022-10-11T18:28:38.292Z,62.40
2022-10-11T18:31:14.694Z,62.36
2022-10-11T18:33:47.474Z,62.29
2022-10-11T18:36:17.243Z,62.37
2022-10-11T18:38:50.011Z,62.24
2022-10-11T18:41:32.340Z,62.23
2022-10-11T18:44:05.017Z,62.22
2022-10-11T18:46:35.992Z,62.24
2022-10-11T18:49:04.144Z,62.14
2022-10-11T18:51:36.151Z,62.08
2022-10-11T18:54:06.255Z,62.02
2022-10-11T18:56:45.006Z,62.08
2022-10-11T18:59:12.935Z,62.01
2022-10-11T19:01:45.187Z,62.03
2022-10-11T19:04:18.920Z,62.01
2022-10-11T19:06:54.607Z,61.95
2022-10-11T19:09:37.575Z,61.84
2022-10-11T19:12:21.582Z,61.79
2022-10-11T19:14:59.545Z,61.80
2022-10-11T19:17:28.470Z,61.71
2022-10-11T19:20:02.561Z,61.77
2022-10-11T19:22:31.390Z,61.74
2022-10-11T19:25:03.800Z,61.80
2022-10-11T19:27:31.770Z,61.74
2022-10-11T19:30:06.494Z,61.71
2022-10-11T19:32:38.644Z,61.67
2022-10-11T19:37:59.671Z,61.67
2022-10-11T19:40:30.250Z,61.69
2022-10-11T19:45:56.024Z,61.65
2022-10-11T19:48:24.585Z,61.50
2022-10-11T19:51:09.010Z,61.49
2022-10-11T19:53:37.939Z,61.54
2022-10-11T19:56:16.872Z,61.53
2022-10-11T19:59:11.259Z,61.56
2022-10-11T20:01:40.347Z,61.47
2022-10-11T20:07:01.496Z,61.54
2022-10-11T20:09:31.111Z,61.59
2022-10-11T20:12:21.372Z,61.60
2022-10-11T20:14:50.786Z,61.45
2022-10-11T20:17:48.968Z,61.48
2022-10-11T20:20:19.395Z,61.42
2022-10-11T20:22:46.378Z,61.41
2022-10-11T20:25:13.955Z,61.36
2022-10-11T20:27:48.405Z,61.29
2022-10-11T20:30:20.890Z,61.40
2022-10-11T20:32:53.929Z,61.38
2022-10-11T20:35:32.353Z,61.35
2022-10-11T20:38:06.494Z,61.26
2022-10-11T20:40:37.755Z,61.36
2022-10-11T20:43:11.476Z,61.30
2022-10-11T20:46:23.868Z,61.37
2022-10-11T20:49:06.384Z,61.40
2022-10-11T20:51:44.620Z,61.42
2022-10-11T20:54:20.915Z,61.35
2022-10-11T20:57:04.918Z,61.52
2022-10-11T20:59:37.411Z,61.39
2022-10-11T21:02:05.881Z,61.40
2022-10-11T21:04:33.421Z,61.31
2022-10-11T21:07:00.416Z,61.32
2022-10-11T21:09:27.630Z,61.28
2022-10-11T21:11:54.706Z,61.25
2022-10-11T21:14:21.674Z,61.34
2022-10-11T21:16:48.852Z,61.24
2022-10-11T21:19:16.303Z,61.38
2022-10-11T21:21:47.402Z,61.29
2022-10-11T21:24:17.989Z,61.31
2022-10-11T21:26:45.068Z,61.35
2022-10-11T21:29:12.044Z,61.32
2022-10-11T21:31:40.927Z,61.28
2022-10-11T21:34:08.116Z,61.33
2022-10-11T21:36:35.597Z,61.24
2022-10-11T21:39:03.000Z,61.29
2022-10-11T21:41:30.428Z,61.24
2022-10-11T21:43:58.882Z,61.19
2022-10-11T21:46:54.198Z,61.16
2022-10-11T21:49:15.732Z,61.04
2022-10-11T21:51:46.615Z,61.02
2022-10-11T21:54:13.684Z,60.97
2022-10-11T21:56:40.747Z,60.97
2022-10-11T21:59:11.163Z,60.88
2022-10-11T22:01:41.456Z,60.93
2022-10-11T22:04:12.510Z,61.04
2022-10-11T22:06:46.012Z,60.92
2022-10-11T22:09:15.415Z,60.96
2022-10-11T22:11:42.519Z,60.85
2022-10-11T22:14:10.541Z,60.84
2022-10-11T22:16:37.431Z,60.91
2022-10-11T22:19:04.440Z,60.97
2022-10-11T22:21:31.505Z,60.88
2022-10-11T22:23:58.761Z,60.80
2022-10-11T22:26:30.910Z,60.92
2022-10-11T22:28:59.095Z,60.78
2022-10-11T22:31:26.661Z,60.76
2022-10-11T22:33:58.044Z,60.63
2022-10-11T22:36:25.929Z,60.63
2022-10-11T22:38:53.607Z,60.57
2022-10-11T22:41:21.115Z,60.52
2022-10-11T22:43:48.174Z,60.61
2022-10-11T22:46:15.136Z,60.59
2022-10-11T22:48:42.057Z,60.59
2022-10-11T22:51:09.187Z,60.58
2022-10-11T22:53:36.379Z,60.63
2022-10-11T22:56:03.715Z,60.66
2022-10-11T22:58:30.704Z,60.40
2022-10-11T23:00:57.574Z,60.55
2022-10-11T23:03:25.188Z,60.51
2022-10-11T23:05:58.437Z,60.48
2022-10-11T23:08:25.527Z,60.56
2022-10-11T23:10:53.172Z,60.69
2022-10-11T23:13:20.661Z,60.66
2022-10-11T23:15:47.713Z,60.65
2022-10-11T23:18:18.706Z,60.53
2022-10-11T23:20:45.722Z,60.57
2022-10-11T23:23:12.653Z,60.58
2022-10-11T23:25:39.746Z,60.47
2022-10-11T23:28:06.815Z,60.54
2022-10-11T23:30:33.754Z,60.50
2022-10-11T23:33:00.712Z,60.56
2022-10-11T23:35:27.572Z,60.56
2022-10-11T23:37:55.003Z,60.49
2022-10-11T23:40:22.023Z,60.54
2022-10-11T23:42:48.892Z,60.46
2022-10-11T23:45:16.026Z,60.57
2022-10-11T23:47:42.950Z,60.54
2022-10-11T23:50:10.146Z,60.53
2022-10-11T23:52:37.082Z,60.57
2022-10-11T23:55:04.297Z,60.49
2022-10-11T23:57:31.308Z,60.48
2022-10-11T23:59:58.255Z,60.48
